Time;durP1;ratioP1;P1;durP2;ratioP2;P2;SDS_P1;SDS_P2;PMS_P1;PMS_P2;Temp;Humidity;BMP_temperature;BMP_pressure;BME280_temperature;BME280_humidity;BME280_pressure;Samples;Min_cycle;Max_cycle;Signal;HPM_P1;HPM_P2
2023/01/23 00:01:32;;;;;;;1.70;1.60;;;;;;;2.89;90.88;100160.66;4439595;32;33528;-81
2023/01/23 00:04:02;;;;;;;0.98;0.98;;;;;;;2.66;95.27;100157.31;4440215;32;34991;-80
2023/01/23 00:06:30;;;;;;;1.00;1.00;;;;;;;2.88;94.96;100153.78;4440155;32;35750;-78
2023/01/23 00:08:58;;;;;;;1.27;1.17;;;;;;;2.94;94.87;100158.25;4440154;32;34423;-79
2023/01/23 00:11:31;;;;;;;2.15;2.05;;;;;;;3.13;95.38;100152.87;4440052;32;34376;-71
2023/01/23 00:14:00;;;;;;;1.08;1.08;;;;;;;3.32;94.50;100140.59;4440354;32;33996;-80
2023/01/23 00:16:30;;;;;;;0.70;0.70;;;;;;;3.22;94.83;100145.44;4440121;32;35075;-81
2023/01/23 00:18:59;;;;;;;0.60;0.60;;;;;;;3.27;95.20;100137.88;4440059;32;33720;-67
2023/01/23 00:21:28;;;;;;;1.80;1.70;;;;;;;3.56;93.81;100138.75;4440028;32;33509;-80
2023/01/23 00:23:58;;;;;;;1.00;0.98;;;;;;;3.74;93.58;100135.91;4439837;32;33888;-66
2023/01/23 00:26:28;;;;;;;0.60;0.60;;;;;;;3.77;91.47;100137.66;4440028;32;35177;-79
2023/01/23 00:28:56;;;;;;;2.30;2.15;;;;;;;3.68;91.12;100135.69;4440084;32;35256;-67
2023/01/23 00:31:27;;;;;;;1.12;1.12;;;;;;;3.65;91.94;100139.88;4439987;32;33419;-70
2023/01/23 00:34:00;;;;;;;0.68;0.68;;;;;;;4.16;90.10;100131.91;4440177;32;34060;-81
2023/01/23 00:36:33;;;;;;;1.02;1.02;;;;;;;3.68;92.05;100133.13;4426271;32;35879;-81
2023/01/23 00:39:03;;;;;;;0.70;0.70;;;;;;;3.68;91.87;100145.13;4439941;32;34432;-81
2023/01/23 00:41:31;;;;;;;1.23;1.20;;;;;;;3.60;91.71;100139.75;4439955;32;33620;-81
2023/01/23 00:43:59;;;;;;;1.02;1.02;;;;;;;3.85;91.71;100128.47;4439857;32;33860;-81
2023/01/23 00:46:28;;;;;;;1.58;1.25;;;;;;;3.75;92.15;100126.47;4439808;32;35231;-77
2023/01/23 00:48:56;;;;;;;1.50;1.37;;;;;;;3.56;93.03;100130.19;4439809;32;35251;-75
2023/01/23 00:51:25;;;;;;;0.90;0.90;;;;;;;4.43;89.01;100138.66;4439878;32;33591;-70
2023/01/23 00:53:53;;;;;;;0.62;0.62;;;;;;;4.14;nan;100141.31;4439889;32;33963;-80
2023/01/23 00:56:22;;;;;;;2.22;2.12;;;;;;;3.92;91.18;100142.41;4440064;32;35021;-79
2023/01/23 00:58:50;;;;;;;0.60;0.60;;;;;;;4.28;89.94;100152.00;4425974;32;34519;-82
2023/01/23 01:01:18;;;;;;;0.80;0.80;;;;;;;4.29;89.98;100153.75;4440045;32;34411;-79
2023/01/23 01:03:47;;;;;;;0.80;0.80;;;;;;;4.40;89.57;100146.31;4439818;32;34009;-82
2023/01/23 01:06:15;;;;;;;0.95;0.95;;;;;;;4.35;89.14;100136.75;4426018;32;34919;-71
2023/01/23 01:08:43;;;;;;;0.95;0.95;;;;;;;4.26;89.46;100136.50;4439706;32;34497;-81
2023/01/23 01:11:12;;;;;;;1.02;1.02;;;;;;;4.11;89.24;100131.81;4439765;32;33501;-81
2023/01/23 01:13:40;;;;;;;1.67;1.58;;;;;;;4.02;90.40;100136.66;4439683;32;34769;-81
2023/01/23 01:16:09;;;;;;;1.35;1.35;;;;;;;4.12;90.19;100128.37;4439654;32;35888;-78
2023/01/23 01:18:38;;;;;;;0.82;0.82;;;;;;;4.34;89.65;100123.81;4439781;32;34516;-80
2023/01/23 01:21:10;;;;;;;0.50;0.50;;;;;;;4.28;88.58;100124.50;4439678;32;33478;-67
2023/01/23 01:23:39;;;;;;;0.50;0.50;;;;;;;4.42;87.69;100121.44;4439944;32;33932;-81
2023/01/23 01:26:08;;;;;;;1.27;1.08;;;;;;;4.43;88.04;100123.19;4439475;32;34999;-76
2023/01/23 01:28:38;;;;;;;1.30;1.20;;;;;;;4.53;86.86;100123.47;4439499;32;34713;-79
2023/01/23 01:31:12;;;;;;;1.12;1.12;;;;;;;4.71;87.68;100130.81;4439713;32;32785;-67
2023/01/23 01:33:41;;;;;;;0.60;0.60;;;;;;;4.23;88.86;100118.34;4426183;32;33844;-81
2023/01/23 01:36:13;;;;;;;1.20;1.12;;;;;;;4.65;87.97;100124.63;4425977;32;34981;-80
2023/01/23 01:38:42;;;;;;;0.95;0.95;;;;;;;4.16;89.66;100119.91;4439618;32;34262;-81
2023/01/23 01:41:11;;;;;;;0.80;0.80;;;;;;;4.72;88.92;100131.69;4439596;32;33504;-81
2023/01/23 01:43:39;;;;;;;1.00;1.00;;;;;;;4.67;88.57;100122.97;4439494;32;34142;-81
2023/01/23 01:46:08;;;;;;;0.50;0.50;;;;;;;4.20;90.25;100120.88;4439461;32;35140;-80
2023/01/23 01:49:25;;;;;;;1.08;1.05;;;;;;;4.71;89.44;100115.34;4439459;32;34585;-68
2023/01/23 01:52:01;;;;;;;4.57;1.50;;;;;;;4.41;89.13;100114.53;4437696;32;34342;-81
2023/01/23 01:54:32;;;;;;;;;;;;;;;4.94;88.13;100127.94;4426269;32;34642;-80
2023/01/23 01:57:08;;;;;;;1.08;1.05;;;;;;;4.77;88.42;100124.94;4439654;32;35348;-80
2023/01/23 01:59:42;;;;;;;2.67;2.47;;;;;;;4.73;88.93;100121.41;4439392;32;35176;-81
2023/01/23 02:02:18;;;;;;;0.55;0.55;;;;;;;4.79;87.20;100117.25;4413215;32;32924;-81
2023/01/23 02:04:48;;;;;;;4.37;1.05;;;;;;;4.73;88.85;100117.97;4425612;32;34803;-66
2023/01/23 02:07:21;;;;;;;0.98;0.98;;;;;;;4.99;87.39;100115.16;4439338;32;35027;-73
2023/01/23 02:09:51;;;;;;;0.70;0.70;;;;;;;5.13;85.12;100114.66;4439290;32;34420;-81
2023/01/23 02:12:19;;;;;;;0.73;0.73;;;;;;;5.18;85.89;100117.31;4439363;32;33505;-81
2023/01/23 02:14:47;;;;;;;0.70;0.70;;;;;;;5.30;85.23;100112.44;4439209;32;33983;-69
2023/01/23 02:17:15;;;;;;;1.08;1.08;;;;;;;5.13;85.58;100112.06;4439325;32;35795;-81
2023/01/23 02:20:11;;;;;;;1.23;1.23;;;;;;;5.04;86.75;100119.56;4425500;32;35117;-66
2023/01/23 02:22:54;;;;;;;0.60;0.60;;;;;;;5.47;84.87;100105.09;4438917;32;33810;-81
2023/01/23 02:25:34;;;;;;;0.68;0.68;;;;;;;5.37;85.10;100108.31;4439206;32;34034;-80
2023/01/23 02:28:03;;;;;;;1.05;0.70;;;;;;;5.62;83.30;100108.84;4439518;32;35152;-80
2023/01/23 02:30:33;;;;;;;1.33;1.25;;;;;;;5.74;82.30;100101.34;4439504;32;35187;-78
2023/01/23 02:33:19;;;;;;;1.60;1.50;;;;;;;5.32;84.21;100104.75;4439266;32;33307;-78
2023/01/23 02:35:49;;;;;;;0.80;0.80;;;;;;;5.53;83.33;100113.81;4438880;32;33915;-81
2023/01/23 02:38:19;;;;;;;0.60;0.60;;;;;;;5.45;84.21;100109.34;4439332;32;35423;-76
2023/01/23 02:40:48;;;;;;;0.62;0.62;;;;;;;5.61;84.58;100114.84;4425741;32;34618;-78
2023/01/23 02:43:20;;;;;;;2.60;2.47;;;;;;;6.01;82.19;100107.97;4439241;32;31897;-71
2023/01/23 02:45:49;;;;;;;0.93;0.85;;;;;;;5.57;84.18;100105.28;4426086;32;34036;-80
2023/01/23 02:48:17;;;;;;;0.77;0.77;;;;;;;5.68;83.63;100103.78;4438954;32;35195;-79
2023/01/23 02:50:45;;;;;;;0.50;0.50;;;;;;;6.06;81.73;100106.34;4439004;32;35339;-82
2023/01/23 02:53:13;;;;;;;0.52;0.52;;;;;;;5.76;83.13;100102.25;4439024;32;33492;-81
2023/01/23 02:55:42;;;;;;;0.57;0.57;;;;;;;5.86;82.49;100087.81;4438924;32;34589;-81
2023/01/23 03:00:57;;;;;;;0.55;0.55;;;;;;;5.98;82.14;100088.09;4438847;32;34451;-79
2023/01/23 03:03:27;;;;;;;1.23;0.82;;;;;;;6.08;81.44;100089.13;4439097;32;33454;-68
2023/01/23 03:05:58;;;;;;;0.50;0.50;;;;;;;5.89;82.87;100088.75;4438827;32;33866;-82
2023/01/23 03:08:32;;;;;;;0.50;0.50;;;;;;;6.00;81.89;100081.25;4439028;32;35169;-76
2023/01/23 03:11:00;;;;;;;1.12;1.12;;;;;;;6.36;80.46;100077.59;4439026;32;34594;-81
2023/01/23 03:13:29;;;;;;;1.60;1.50;;;;;;;6.41;80.03;100082.88;4438683;32;33796;-76
2023/01/23 03:15:57;;;;;;;0.60;0.60;;;;;;;6.55;79.36;100076.22;4438685;32;34017;-67
2023/01/23 03:18:30;;;;;;;0.50;0.50;;;;;;;6.37;79.94;100083.63;4438897;32;36010;-81
2023/01/23 03:21:03;;;;;;;0.50;0.50;;;;;;;6.20;80.62;100088.50;4438686;32;34354;-80
2023/01/23 03:23:31;;;;;;;0.40;0.40;;;;;;;5.99;81.73;100081.22;4438617;32;33485;-81
2023/01/23 03:26:00;;;;;;;0.47;0.47;;;;;;;6.57;79.05;100074.53;4438390;32;33906;-82
2023/01/23 03:31:16;;;;;;;1.42;1.35;;;;;;;6.35;78.37;100069.81;4438800;32;34507;-81
2023/01/23 03:33:44;;;;;;;0.88;0.88;;;;;;;6.23;81.38;100067.91;4438492;32;34275;-67
2023/01/23 03:36:13;;;;;;;0.90;0.90;;;;;;;6.39;79.86;100064.72;4439788;32;33848;-67
2023/01/23 03:41:23;;;;;;;0.98;0.98;;;;;;;6.11;81.60;100063.34;4440705;32;35764;-81
2023/01/23 03:41:29;;;;;;;0.50;0.50;;;;;;;6.16;81.28;100064.31;4440658;32;34503;-80
2023/01/23 03:43:59;;;;;;;0.50;0.50;;;;;;;6.43;80.55;100066.50;4440302;32;33516;-80
2023/01/23 03:46:27;;;;;;;0.55;0.55;;;;;;;6.07;81.26;100059.84;4440653;32;33920;-70
2023/01/23 03:48:55;;;;;;;0.57;0.57;;;;;;;6.57;79.19;100064.16;4440245;32;35072;-82
2023/01/23 03:51:23;;;;;;;1.25;1.17;;;;;;;6.29;80.00;100054.19;4440601;32;34457;-80
2023/01/23 03:53:52;;;;;;;0.40;0.40;;;;;;;5.91;82.56;100060.31;4440331;32;33000;-81
2023/01/23 03:56:21;;;;;;;5.72;1.58;;;;;;;5.42;84.53;100059.34;4440525;32;34072;-80
2023/01/23 03:58:49;;;;;;;0.80;0.80;;;;;;;6.03;82.84;100064.91;4440462;32;35049;-82
2023/01/23 04:01:18;;;;;;;0.50;0.50;;;;;;;6.37;80.80;100057.78;4440184;32;34358;-79
2023/01/23 04:03:47;;;;;;;0.50;0.50;;;;;;;6.16;81.30;100066.00;4440208;32;33761;-76
2023/01/23 04:06:16;;;;;;;0.73;0.73;;;;;;;5.85;83.44;100061.09;4440442;32;34607;-82
2023/01/23 04:08:45;;;;;;;0.60;0.60;;;;;;;6.23;81.12;100058.41;4440327;32;34921;-68
2023/01/23 04:11:13;;;;;;;0.80;0.80;;;;;;;6.18;81.83;100062.62;4440568;32;35070;-82
2023/01/23 04:13:41;;;;;;;0.60;0.60;;;;;;;6.41;80.46;100064.75;4440323;32;33500;-81
2023/01/23 04:16:09;;;;;;;0.40;0.40;;;;;;;6.28;80.35;100065.38;4440113;32;33916;-81
2023/01/23 04:18:38;;;;;;;0.52;0.52;;;;;;;5.89;82.25;100070.66;4440319;32;35987;-80
2023/01/23 04:21:06;;;;;;;0.50;0.50;;;;;;;6.15;82.00;100065.16;4440129;32;34578;-81
2023/01/23 04:23:34;;;;;;;0.40;0.40;;;;;;;6.32;80.28;100067.16;4440418;32;33537;-82
2023/01/23 04:26:03;;;;;;;3.92;1.08;;;;;;;6.34;80.04;100073.25;4440112;32;34065;-80
2023/01/23 04:28:32;;;;;;;1.02;1.02;;;;;;;6.47;79.82;100067.44;4440090;32;35233;-81
2023/01/23 04:31:00;;;;;;;0.60;0.60;;;;;;;6.10;81.16;100074.53;4440352;32;34672;-81
2023/01/23 04:33:29;;;;;;;0.70;0.70;;;;;;;6.57;78.90;100073.66;4440246;32;33633;-71
2023/01/23 04:36:00;;;;;;;0.60;0.60;;;;;;;6.26;78.86;100073.09;4440077;32;34786;-71
2023/01/23 04:38:29;;;;;;;1.02;1.02;;;;;;;5.49;82.59;100072.41;4440183;32;35120;-79
2023/01/23 04:41:01;;;;;;;0.50;0.50;;;;;;;5.96;79.11;100079.41;4440162;32;34387;-78
2023/01/23 04:43:29;;;;;;;0.50;0.50;;;;;;;6.02;80.35;100068.34;4440284;32;33419;-81
2023/01/23 04:45:59;;;;;;;0.60;0.60;;;;;;;5.75;82.49;100074.66;4439806;32;34976;-79
2023/01/23 04:48:28;;;;;;;0.98;0.98;;;;;;;6.05;80.62;100070.97;4440060;32;35815;-80
2023/01/23 04:50:56;;;;;;;0.65;0.65;;;;;;;5.67;82.01;100063.31;4440079;32;35161;-82
2023/01/23 04:53:25;;;;;;;5.10;1.17;;;;;;;6.07;81.17;100069.28;4439918;32;33669;-81
2023/01/23 04:55:55;;;;;;;1.02;1.02;;;;;;;6.15;81.78;100077.22;4439948;32;33188;-82
2023/01/23 04:58:24;;;;;;;0.57;0.55;;;;;;;6.27;81.39;100069.69;4440081;32;36026;-83
2023/01/23 05:01:01;;;;;;;0.55;0.55;;;;;;;6.23;84.15;100068.75;4439867;32;34307;-83
2023/01/23 05:03:29;;;;;;;2.12;1.25;;;;;;;6.12;83.27;100083.19;4426428;32;33426;-81
2023/01/23 05:05:57;;;;;;;0.50;0.50;;;;;;;6.62;80.89;100088.41;4439947;32;34066;-81
2023/01/23 05:08:26;;;;;;;0.50;0.50;;;;;;;6.54;81.12;100086.53;4439684;32;34900;-83
2023/01/23 05:10:55;;;;;;;0.43;0.43;;;;;;;6.43;81.44;100092.38;4440043;32;34661;-82
2023/01/23 05:13:23;;;;;;;0.70;0.70;;;;;;;6.42;82.31;100095.84;4440043;32;33375;-81
2023/01/23 05:15:52;;;;;;;0.45;0.45;;;;;;;6.49;81.15;100091.63;4440032;32;34118;-80
2023/01/23 05:18:20;;;;;;;0.65;0.65;;;;;;;6.87;81.26;100088.84;4439991;32;35308;-81
2023/01/23 05:20:48;;;;;;;0.40;0.40;;;;;;;6.95;81.79;100095.00;4439585;32;34554;-81
2023/01/23 05:23:16;;;;;;;0.50;0.50;;;;;;;7.24;80.89;100099.75;4439973;32;33487;-81
2023/01/23 05:25:45;;;;;;;1.02;0.95;;;;;;;7.23;80.02;100095.41;4439805;32;34052;-69
2023/01/23 05:28:13;;;;;;;0.40;0.40;;;;;;;6.91;81.11;100090.59;4439856;32;35963;-82
2023/01/23 05:30:42;;;;;;;0.55;0.55;;;;;;;7.17;80.31;100103.09;4439882;32;34619;-81
2023/01/23 05:33:11;;;;;;;0.98;0.98;;;;;;;7.41;79.52;100092.22;4439825;32;33592;-79
2023/01/23 05:35:40;;;;;;;0.50;0.50;;;;;;;7.38;79.50;100094.78;4439566;32;34873;-79
2023/01/23 05:38:09;;;;;;;0.95;0.95;;;;;;;7.63;79.62;100098.59;4426142;32;34955;-79
2023/01/23 05:40:37;;;;;;;0.40;0.40;;;;;;;7.40;80.35;100091.34;4426387;32;35094;-66
2023/01/23 05:43:10;;;;;;;0.50;0.50;;;;;;;7.70;79.28;100095.22;4440142;32;33608;-65
2023/01/23 05:45:42;;;;;;;0.70;0.70;;;;;;;7.92;77.43;100088.59;4426676;32;33895;-66
2023/01/23 05:48:11;;;;;;;6.80;1.85;;;;;;;7.83;77.66;100092.78;4439756;32;35009;-66
2023/01/23 05:50:39;;;;;;;0.50;0.50;;;;;;;7.44;78.47;100091.41;4439713;32;34552;-80
2023/01/23 05:53:07;;;;;;;0.40;0.40;;;;;;;7.78;76.86;100098.78;4439577;32;33424;-80
2023/01/23 05:55:39;;;;;;;0.40;0.40;;;;;;;7.56;77.13;100107.12;4439690;32;33815;-77
2023/01/23 05:58:07;;;;;;;0.50;0.50;;;;;;;6.88;78.22;100100.91;4438556;32;35852;-73
2023/01/23 06:00:36;;;;;;;0.73;0.73;;;;;;;7.53;78.29;100109.66;4439647;32;34439;-81
2023/01/23 06:03:06;;;;;;;0.68;0.68;;;;;;;7.64;78.05;100118.47;4439897;32;33621;-73
2023/01/23 06:05:34;;;;;;;3.35;0.85;;;;;;;7.74;78.43;100120.31;4425755;32;33183;-78
2023/01/23 06:08:03;;;;;;;0.98;0.60;;;;;;;7.82;78.17;100110.06;4425758;32;34570;-65
2023/01/23 06:10:31;;;;;;;0.47;0.47;;;;;;;7.96;77.70;100118.87;4439884;32;34589;-66
2023/01/23 06:13:00;;;;;;;0.57;0.57;;;;;;;7.89;78.27;100122.25;4439881;32;33584;-66
2023/01/23 06:15:28;;;;;;;0.65;0.65;;;;;;;7.87;78.01;100120.47;4439513;32;33727;-74
2023/01/23 06:17:57;;;;;;;0.43;0.43;;;;;;;7.88;78.08;100128.28;4439657;32;34807;-74
2023/01/23 06:20:25;;;;;;;0.70;0.70;;;;;;;8.04;77.47;100131.94;4425855;32;34378;-66
2023/01/23 06:22:54;;;;;;;0.40;0.40;;;;;;;8.22;77.07;100130.41;4439911;32;33238;-67
2023/01/23 06:25:22;;;;;;;0.40;0.40;;;;;;;8.35;75.85;100133.19;4425900;32;33082;-66
2023/01/23 06:27:51;;;;;;;0.52;0.52;;;;;;;8.39;75.42;100141.87;4437162;32;35895;-64
2023/01/23 06:30:22;;;;;;;0.55;0.55;;;;;;;8.29;75.60;100143.47;4425479;32;35081;-65
2023/01/23 06:32:50;;;;;;;0.50;0.50;;;;;;;8.42;74.59;100152.31;4439082;32;34310;-66
2023/01/23 06:35:19;;;;;;;0.40;0.40;;;;;;;8.52;75.15;100153.28;4439130;32;33928;-65
2023/01/23 06:37:48;;;;;;;1.00;0.95;;;;;;;8.46;74.46;100159.28;4439004;32;35913;-65
2023/01/23 06:40:18;;;;;;;0.75;0.75;;;;;;;8.33;74.41;100160.84;4425356;32;34473;-65
2023/01/23 06:42:49;;;;;;;0.50;0.50;;;;;;;8.46;74.56;100161.00;4425272;32;33457;-64
2023/01/23 06:45:18;;;;;;;0.77;0.77;;;;;;;8.52;73.68;100156.75;4444611;32;33800;-65
2023/01/23 06:47:46;;;;;;;0.50;0.50;;;;;;;8.38;74.78;100165.19;4438902;32;35036;-65
2023/01/23 06:50:15;;;;;;;0.50;0.50;;;;;;;8.29;75.38;100164.22;4438706;32;35194;-65
2023/01/23 06:52:44;;;;;;;0.62;0.62;;;;;;;8.39;74.36;100159.16;4424619;32;33347;-65
2023/01/23 06:55:13;;;;;;;0.65;0.65;;;;;;;8.44;75.01;100170.50;4439008;32;33978;-64
2023/01/23 06:57:42;;;;;;;0.50;0.50;;;;;;;8.32;74.70;100166.00;4438817;32;34919;-67
2023/01/23 07:00:12;;;;;;;0.40;0.40;;;;;;;8.27;74.77;100165.94;4438686;32;34319;-65
2023/01/23 07:02:40;;;;;;;0.47;0.47;;;;;;;8.42;74.65;100165.28;4438721;32;33638;-67
2023/01/23 07:05:11;;;;;;;6.00;1.30;;;;;;;8.25;75.52;100184.94;4439100;32;33852;-65
2023/01/23 07:07:43;;;;;;;0.50;0.50;;;;;;;8.79;73.32;100186.47;4425230;32;35375;-65
2023/01/23 07:10:11;;;;;;;0.60;0.60;;;;;;;8.72;73.58;100193.31;4438365;32;34474;-64
2023/01/23 07:12:39;;;;;;;0.47;0.47;;;;;;;8.78;72.98;100192.50;4438638;32;34277;-71
2023/01/23 07:15:09;;;;;;;0.50;0.50;;;;;;;8.67;72.99;100188.94;4438785;32;34048;-65
2023/01/23 07:17:38;;;;;;;0.50;0.50;;;;;;;8.68;72.68;100194.16;4438393;32;35009;-79
2023/01/23 07:20:06;;;;;;;1.85;1.48;;;;;;;8.84;73.48;100194.28;4438920;32;34578;-84
2023/01/23 07:22:36;;;;;;;0.37;0.37;;;;;;;9.29;70.75;100193.81;4424764;32;32264;-81
2023/01/23 07:25:05;;;;;;;0.40;0.40;;;;;;;8.91;73.13;100194.38;4438535;32;34792;-82
2023/01/23 07:27:33;;;;;;;0.68;0.62;;;;;;;9.02;71.95;100193.59;4438498;32;36058;-80
2023/01/23 07:30:02;;;;;;;3.90;2.87;;;;;;;8.90;71.80;100195.22;4438414;32;35116;-75
2023/01/23 07:32:31;;;;;;;0.45;0.45;;;;;;;9.17;70.64;100188.53;4438514;32;34168;-80
2023/01/23 07:34:59;;;;;;;0.40;0.40;;;;;;;9.09;71.88;100195.41;4438254;32;34746;-78
2023/01/23 07:37:27;;;;;;;1.08;1.08;;;;;;;9.15;72.10;100194.59;4438198;32;35784;-79
2023/01/23 07:39:55;;;;;;;0.32;0.32;;;;;;;9.16;71.42;100199.81;4438378;32;34535;-82
2023/01/23 07:42:23;;;;;;;0.70;0.70;;;;;;;9.27;71.37;100200.75;4438351;32;33480;-75
2023/01/23 07:44:51;;;;;;;0.40;0.40;;;;;;;9.02;72.41;100199.66;4438233;32;34777;-81
2023/01/23 07:47:20;;;;;;;0.50;0.50;;;;;;;9.11;72.51;100193.69;4438072;32;35128;-66
2023/01/23 07:49:48;;;;;;;1.10;1.02;;;;;;;9.33;71.08;100204.25;4438287;32;35162;-80
2023/01/23 07:52:16;;;;;;;0.60;0.60;;;;;;;9.14;71.49;100198.91;4438211;32;33447;-79
2023/01/23 07:54:44;;;;;;;1.08;1.08;;;;;;;9.40;70.27;100204.31;4438094;32;34843;-81
2023/01/23 07:57:12;;;;;;;1.48;0.77;;;;;;;8.99;72.97;100202.22;4438388;32;35477;-80
2023/01/23 07:59:40;;;;;;;6.40;1.17;;;;;;;9.15;71.11;100217.97;4437987;32;35233;-67
2023/01/23 08:02:09;;;;;;;1.00;1.00;;;;;;;9.38;70.55;100207.78;4438013;32;33706;-69
2023/01/23 08:04:38;;;;;;;0.85;0.85;;;;;;;9.46;71.42;100196.56;4438242;32;33995;-73
2023/01/23 08:07:08;;;;;;;0.65;0.65;;;;;;;9.21;72.38;100207.63;4437907;32;35192;-81
2023/01/23 08:09:36;;;;;;;0.50;0.50;;;;;;;9.48;70.41;100209.59;4437841;32;35299;-79
2023/01/23 08:12:05;;;;;;;0.62;0.62;;;;;;;9.86;69.40;100206.37;4437930;32;33731;-79
2023/01/23 08:14:32;;;;;;;0.98;0.95;;;;;;;10.01;68.18;100206.47;4437875;32;33704;-79
2023/01/23 08:17:02;;;;;;;0.40;0.40;;;;;;;10.13;67.36;100209.97;4437654;32;34737;-81
2023/01/23 08:19:30;;;;;;;0.47;0.47;;;;;;;10.16;68.73;100210.00;4423982;32;34379;-67
2023/01/23 08:21:58;;;;;;;0.40;0.40;;;;;;;10.33;67.88;100208.38;4439158;32;34322;-81
2023/01/23 08:24:26;;;;;;;0.70;0.70;;;;;;;10.50;66.41;100207.56;4440173;32;34004;-79
2023/01/23 08:26:55;;;;;;;0.50;0.50;;;;;;;10.48;66.05;100215.38;4439874;32;35156;-81
2023/01/23 08:29:23;;;;;;;0.68;0.68;;;;;;;10.40;66.64;100207.53;4440102;32;35355;-79
2023/01/23 08:31:53;;;;;;;0.77;0.60;;;;;;;10.37;66.93;100204.91;4439980;32;34229;-80
2023/01/23 08:34:23;;;;;;;0.50;0.50;;;;;;;10.01;67.52;100211.66;4439758;32;34779;-74
2023/01/23 08:36:51;;;;;;;0.50;0.50;;;;;;;9.84;67.62;100202.87;4440003;32;35841;-80
2023/01/23 08:39:19;;;;;;;0.85;0.73;;;;;;;10.11;66.58;100204.78;4439978;32;34559;-78
2023/01/23 08:41:47;;;;;;;1.17;1.17;;;;;;;10.02;67.53;100217.72;4439957;32;34252;-82
2023/01/23 08:44:15;;;;;;;1.40;1.30;;;;;;;9.89;68.27;100206.37;4439937;32;34069;-81
2023/01/23 08:46:45;;;;;;;0.70;0.70;;;;;;;10.05;67.12;100212.56;4439843;32;35188;-82
2023/01/23 08:49:13;;;;;;;0.75;0.75;;;;;;;9.84;68.54;100211.56;4439864;32;35267;-81
2023/01/23 08:51:41;;;;;;;0.40;0.40;;;;;;;9.92;67.75;100214.22;4439866;32;33382;-79
2023/01/23 08:54:09;;;;;;;0.60;0.60;;;;;;;10.16;66.55;100220.41;4439785;32;34007;-78
2023/01/23 08:56:40;;;;;;;0.77;0.77;;;;;;;10.20;66.19;100215.25;4439827;32;35168;-81
2023/01/23 08:59:08;;;;;;;0.65;0.65;;;;;;;10.29;66.62;100218.72;4426117;32;35331;-82
2023/01/23 09:01:36;;;;;;;0.80;0.80;;;;;;;10.21;66.21;100218.69;4439780;32;33736;-80
2023/01/23 09:04:10;;;;;;;0.47;0.47;;;;;;;10.19;66.17;100230.84;4439837;32;34084;-70
2023/01/23 09:06:38;;;;;;;0.50;0.50;;;;;;;9.78;67.71;100223.69;4439580;32;36005;-75
2023/01/23 09:09:07;;;;;;;0.62;0.62;;;;;;;10.03;67.51;100215.12;4439820;32;34614;-82
2023/01/23 09:11:35;;;;;;;0.50;0.50;;;;;;;10.16;67.71;100220.41;4439779;32;33637;-81
2023/01/23 09:14:03;;;;;;;0.52;0.52;;;;;;;10.53;65.42;100216.25;4439681;32;34060;-80
2023/01/23 09:16:32;;;;;;;0.80;0.80;;;;;;;10.58;65.04;100224.97;4439666;32;35873;-82
2023/01/23 09:19:00;;;;;;;0.98;0.98;;;;;;;10.69;65.29;100221.53;4439961;32;34578;-68
2023/01/23 09:21:28;;;;;;;1.02;0.80;;;;;;;10.81;64.22;100222.41;4439634;32;34317;-81
2023/01/23 09:23:56;;;;;;;2.72;1.80;;;;;;;10.71;64.97;100225.88;4439608;32;34007;-81
2023/01/23 09:26:24;;;;;;;0.65;0.65;;;;;;;10.81;64.36;100226.78;4439610;32;35088;-80
2023/01/23 09:28:53;;;;;;;6.53;2.78;;;;;;;11.18;65.83;100224.22;4439784;32;34257;-80
2023/01/23 09:31:22;;;;;;;0.40;0.40;;;;;;;11.71;62.45;100214.66;4439591;32;34369;-67
2023/01/23 09:33:50;;;;;;;0.85;0.85;;;;;;;11.79;61.24;100215.53;4438110;32;33929;-67
2023/01/23 09:36:18;;;;;;;0.90;0.90;;;;;;;12.17;63.17;100222.41;4439624;32;35932;-81
2023/01/23 09:39:08;;;;;;;0.55;0.55;;;;;;;13.01;58.36;100218.53;4439471;32;34351;-82
2023/01/23 09:41:38;;;;;;;1.35;0.85;;;;;;;13.25;56.45;100207.03;4439409;32;33504;-83
2023/01/23 09:44:33;;;;;;;1.42;1.33;;;;;;;13.51;56.45;100208.59;4439528;32;34741;-81
2023/01/23 09:47:11;;;;;;;1.02;1.00;;;;;;;13.81;54.66;100217.91;4439395;32;35182;-67
2023/01/23 09:50:09;;;;;;;1.37;1.30;;;;;;;14.37;54.52;100207.69;4439400;32;34447;-81
2023/01/23 09:52:47;;;;;;;0.62;0.62;;;;;;;14.26;53.49;100212.19;4437070;32;33807;-80
2023/01/23 09:55:23;;;;;;;0.85;0.85;;;;;;;13.92;54.98;100214.31;4425717;32;33906;-80
2023/01/23 09:57:54;;;;;;;0.90;0.90;;;;;;;14.91;52.61;100209.63;4425763;32;36049;-78
2023/01/23 10:00:28;;;;;;;0.95;0.95;;;;;;;14.56;53.86;100208.31;4439176;32;34494;-67
2023/01/23 10:03:02;;;;;;;1.12;1.12;;;;;;;14.56;53.32;100212.72;4439528;32;33590;-83
2023/01/23 10:05:38;;;;;;;2.62;1.52;;;;;;;14.51;53.68;100207.50;4425739;32;33975;-67
2023/01/23 10:08:20;;;;;;;0.40;0.40;;;;;;;15.20;50.92;100212.69;4425550;32;34961;-82
2023/01/23 10:10:58;;;;;;;1.77;1.65;;;;;;;15.87;49.65;100202.84;4425633;32;35177;-82
2023/01/23 10:13:42;;;;;;;1.77;1.08;;;;;;;16.84;46.51;100207.00;4439360;32;33429;-70
2023/01/23 10:16:13;;;;;;;1.02;1.00;;;;;;;17.78;43.76;100203.81;4439414;32;33977;-83
2023/01/23 10:19:09;;;;;;;0.70;0.70;;;;;;;17.06;46.34;100214.38;4425611;32;35879;-68
2023/01/23 10:21:53;;;;;;;0.45;0.45;;;;;;;17.23;44.90;100204.31;4439377;32;35304;-83
2023/01/23 10:24:33;;;;;;;0.55;0.55;;;;;;;16.89;46.09;100212.16;4439226;32;34295;-67
2023/01/23 10:27:21;;;;;;;2.30;2.10;;;;;;;17.65;43.57;100216.47;4439160;32;34932;-81
2023/01/23 10:29:59;;;;;;;1.23;1.20;;;;;;;18.17;41.62;100222.12;4439229;32;35179;-82
2023/01/23 10:32:31;;;;;;;3.12;2.55;;;;;;;17.85;41.95;100217.72;4425685;32;34605;-82
2023/01/23 10:35:15;;;;;;;1.00;0.90;;;;;;;17.62;42.14;100214.75;4425818;32;33236;-74
2023/01/23 10:37:51;;;;;;;1.27;1.17;;;;;;;17.22;43.70;100202.59;4439411;32;33922;-80
2023/01/23 10:43:13;;;;;;;0.98;0.98;;;;;;;16.64;45.71;100217.03;4439117;32;34244;-81
2023/01/23 10:45:43;;;;;;;0.40;0.40;;;;;;;15.98;45.47;100210.50;4438572;32;34542;-82
2023/01/23 10:48:40;;;;;;;0.70;0.70;;;;;;;16.06;47.44;100200.72;4438915;32;34870;-80
2023/01/23 10:51:25;;;;;;;0.62;0.62;;;;;;;16.38;46.95;100196.59;4438970;32;34853;-82
2023/01/23 10:54:19;;;;;;;0.70;0.70;;;;;;;15.82;46.08;100199.41;4439072;32;35356;-83
2023/01/23 10:57:19;;;;;;;0.80;0.80;;;;;;;15.26;47.75;100207.34;4438746;32;34494;-83
2023/01/23 11:00:03;;;;;;;1.75;1.65;;;;;;;14.49;49.68;100196.19;4425122;32;34049;-84
2023/01/23 11:02:36;;;;;;;0.93;0.93;;;;;;;14.15;51.23;100191.38;4438838;32;35097;-75
2023/01/23 11:05:40;;;;;;;2.30;2.15;;;;;;;13.79;51.58;100196.09;4438934;32;34420;-84
2023/01/23 11:08:31;;;;;;;0.68;0.68;;;;;;;14.23;52.50;100186.88;4438805;32;34408;-85
2023/01/23 11:11:30;;;;;;;0.88;0.88;;;;;;;15.49;49.40;100181.56;4438743;32;34854;-82
2023/01/23 11:14:07;;;;;;;1.15;1.15;;;;;;;15.75;48.73;100184.69;4426808;32;35044;-85
2023/01/23 11:16:36;;;;;;;1.00;1.00;;;;;;;15.25;49.47;100180.25;4438660;32;35324;-84
2023/01/23 11:19:15;;;;;;;1.00;0.90;;;;;;;15.29;49.60;100183.69;4424846;32;34320;-85
2023/01/23 11:21:51;;;;;;;2.03;1.83;;;;;;;14.71;49.81;100186.28;4424908;32;33807;-79
2023/01/23 11:24:21;;;;;;;1.08;1.00;;;;;;;15.02;51.08;100171.84;4438541;32;34977;-85
2023/01/23 11:27:26;;;;;;;0.75;0.75;;;;;;;15.72;49.47;100168.06;4438588;32;35392;-85
2023/01/23 11:30:13;;;;;;;0.60;0.60;;;;;;;16.30;47.36;100167.81;4438450;32;33725;-85
2023/01/23 11:33:07;;;;;;;0.40;0.40;;;;;;;15.94;47.15;100157.16;4430238;32;266026;-83
2023/01/23 11:35:57;;;;;;;1.45;1.12;;;;;;;15.64;48.09;100159.44;4431663;32;35710;-85
2023/01/23 11:38:26;;;;;;;2.22;1.48;;;;;;;15.33;50.12;100154.72;4424596;32;35332;-82
2023/01/23 11:40:58;;;;;;;1.58;1.42;;;;;;;15.01;48.86;100162.28;4425209;32;33622;-79
2023/01/23 11:43:26;;;;;;;1.85;1.25;;;;;;;14.95;49.20;100169.34;4438260;32;33953;-85
2023/01/23 11:46:07;;;;;;;0.85;0.85;;;;;;;14.83;50.02;100151.19;4424551;32;35275;-86
2023/01/23 11:48:35;;;;;;;0.93;0.90;;;;;;;14.62;50.37;100134.00;4438124;32;34561;-85
2023/01/23 11:51:23;;;;;;;1.45;1.35;;;;;;;14.56;49.89;100153.28;4438247;32;34576;-74
2023/01/23 11:54:17;;;;;;;0.40;0.40;;;;;;;15.14;49.95;100143.69;4424688;32;33842;-83
2023/01/23 11:57:17;;;;;;;1.52;1.37;;;;;;;15.81;47.72;100145.16;4438972;32;34995;-85
2023/01/23 11:59:56;;;;;;;2.40;1.08;;;;;;;15.95;47.47;100147.50;4420887;32;34461;-85
2023/01/23 12:02:24;;;;;;;0.95;0.93;;;;;;;15.61;47.25;100143.75;4440012;32;34182;-85